sensor_id;sensor_type;location;lat;lon;timestamp;P1;durP1;ratioP1;P2;durP2;ratioP2
29214;SDS011;16252;49.816;7.964;2023-03-01T00:00:54;19.80;;;10.15;;
29214;SDS011;16252;49.816;7.964;2023-03-01T00:03:25;19.33;;;10.25;;
29214;SDS011;16252;49.816;7.964;2023-03-01T00:05:50;16.48;;;9.35;;
29214;SDS011;16252;49.816;7.964;2023-03-01T00:08:15;15.90;;;8.85;;
29214;SDS011;16252;49.816;7.964;2023-03-01T00:10:41;18.63;;;9.68;;
29214;SDS011;16252;49.816;7.964;2023-03-01T00:13:06;13.02;;;8.48;;
29214;SDS011;16252;49.816;7.964;2023-03-01T00:15:31;12.90;;;8.10;;
29214;SDS011;16252;49.816;7.964;2023-03-01T00:17:57;17.70;;;8.10;;
29214;SDS011;16252;49.816;7.964;2023-03-01T00:20:22;12.43;;;7.75;;
29214;SDS011;16252;49.816;7.964;2023-03-01T00:22:48;14.50;;;7.93;;
29214;SDS011;16252;49.816;7.964;2023-03-01T00:25:13;11.00;;;7.63;;
29214;SDS011;16252;49.816;7.964;2023-03-01T00:27:38;11.77;;;7.35;;
29214;SDS011;16252;49.816;7.964;2023-03-01T00:30:03;11.57;;;7.38;;
29214;SDS011;16252;49.816;7.964;2023-03-01T00:32:30;12.40;;;7.75;;
29214;SDS011;16252;49.816;7.964;2023-03-01T00:34:55;12.77;;;7.53;;
29214;SDS011;16252;49.816;7.964;2023-03-01T00:37:21;14.25;;;7.22;;
29214;SDS011;16252;49.816;7.964;2023-03-01T00:39:47;15.07;;;7.95;;
29214;SDS011;16252;49.816;7.964;2023-03-01T00:42:13;13.50;;;8.30;;
29214;SDS011;16252;49.816;7.964;2023-03-01T00:44:38;12.00;;;7.50;;
29214;SDS011;16252;49.816;7.964;2023-03-01T00:47:03;13.48;;;8.27;;
29214;SDS011;16252;49.816;7.964;2023-03-01T00:49:29;12.25;;;7.85;;
29214;SDS011;16252;49.816;7.964;2023-03-01T00:51:54;12.13;;;7.80;;
29214;SDS011;16252;49.816;7.964;2023-03-01T00:54:19;13.20;;;7.93;;
29214;SDS011;16252;49.816;7.964;2023-03-01T00:56:44;10.85;;;7.88;;
29214;SDS011;16252;49.816;7.964;2023-03-01T00:59:10;11.73;;;7.72;;
29214;SDS011;16252;49.816;7.964;2023-03-01T01:01:35;12.85;;;7.30;;
29214;SDS011;16252;49.816;7.964;2023-03-01T01:04:05;12.95;;;7.43;;
29214;SDS011;16252;49.816;7.964;2023-03-01T01:06:36;12.40;;;7.25;;
29214;SDS011;16252;49.816;7.964;2023-03-01T01:09:12;14.77;;;8.07;;
29214;SDS011;16252;49.816;7.964;2023-03-01T01:11:42;15.10;;;8.63;;
29214;SDS011;16252;49.816;7.964;2023-03-01T01:14:12;15.07;;;8.48;;
29214;SDS011;16252;49.816;7.964;2023-03-01T01:16:38;14.00;;;8.57;;
29214;SDS011;16252;49.816;7.964;2023-03-01T01:19:04;16.60;;;8.70;;
29214;SDS011;16252;49.816;7.964;2023-03-01T01:21:29;12.38;;;8.38;;
29214;SDS011;16252;49.816;7.964;2023-03-01T01:23:55;14.63;;;8.07;;
29214;SDS011;16252;49.816;7.964;2023-03-01T01:26:22;11.57;;;8.20;;
29214;SDS011;16252;49.816;7.964;2023-03-01T01:28:49;12.95;;;7.88;;
29214;SDS011;16252;49.816;7.964;2023-03-01T01:31:16;15.65;;;8.55;;
29214;SDS011;16252;49.816;7.964;2023-03-01T01:33:42;15.05;;;9.07;;
29214;SDS011;16252;49.816;7.964;2023-03-01T01:36:08;15.27;;;9.18;;
29214;SDS011;16252;49.816;7.964;2023-03-01T01:38:34;14.90;;;9.10;;
29214;SDS011;16252;49.816;7.964;2023-03-01T01:41:01;13.85;;;8.15;;
29214;SDS011;16252;49.816;7.964;2023-03-01T01:43:27;12.13;;;8.20;;
29214;SDS011;16252;49.816;7.964;2023-03-01T01:45:55;14.00;;;8.00;;
29214;SDS011;16252;49.816;7.964;2023-03-01T01:48:25;11.60;;;7.45;;
29214;SDS011;16252;49.816;7.964;2023-03-01T01:51:05;13.05;;;7.03;;
29214;SDS011;16252;49.816;7.964;2023-03-01T01:53:34;12.85;;;7.47;;
29214;SDS011;16252;49.816;7.964;2023-03-01T01:56:01;11.48;;;7.38;;
29214;SDS011;16252;49.816;7.964;2023-03-01T01:58:27;12.45;;;6.50;;
29214;SDS011;16252;49.816;7.964;2023-03-01T02:00:55;9.65;;;7.00;;
29214;SDS011;16252;49.816;7.964;2023-03-01T02:03:25;11.77;;;6.80;;
29214;SDS011;16252;49.816;7.964;2023-03-01T02:08:30;9.73;;;6.90;;
29214;SDS011;16252;49.816;7.964;2023-03-01T02:10:58;11.00;;;6.72;;
29214;SDS011;16252;49.816;7.964;2023-03-01T02:13:25;11.75;;;7.13;;
29214;SDS011;16252;49.816;7.964;2023-03-01T02:15:50;12.50;;;7.65;;
29214;SDS011;16252;49.816;7.964;2023-03-01T02:18:17;9.77;;;7.40;;
29214;SDS011;16252;49.816;7.964;2023-03-01T02:23:38;10.48;;;7.28;;
29214;SDS011;16252;49.816;7.964;2023-03-01T02:26:06;12.63;;;7.90;;
29214;SDS011;16252;49.816;7.964;2023-03-01T02:28:38;11.02;;;7.35;;
29214;SDS011;16252;49.816;7.964;2023-03-01T02:31:08;10.25;;;7.68;;
29214;SDS011;16252;49.816;7.964;2023-03-01T02:33:54;11.18;;;7.25;;
29214;SDS011;16252;49.816;7.964;2023-03-01T02:36:25;12.55;;;7.55;;
29214;SDS011;16252;49.816;7.964;2023-03-01T02:38:55;10.85;;;7.03;;
29214;SDS011;16252;49.816;7.964;2023-03-01T02:41:23;11.13;;;7.13;;
29214;SDS011;16252;49.816;7.964;2023-03-01T02:43:51;10.77;;;7.43;;
29214;SDS011;16252;49.816;7.964;2023-03-01T02:46:18;11.80;;;7.40;;
29214;SDS011;16252;49.816;7.964;2023-03-01T02:48:47;10.95;;;5.90;;
29214;SDS011;16252;49.816;7.964;2023-03-01T02:51:21;9.53;;;6.37;;
29214;SDS011;16252;49.816;7.964;2023-03-01T02:53:58;10.23;;;6.80;;
29214;SDS011;16252;49.816;7.964;2023-03-01T02:56:25;10.60;;;6.53;;
29214;SDS011;16252;49.816;7.964;2023-03-01T02:58:51;10.38;;;6.50;;
29214;SDS011;16252;49.816;7.964;2023-03-01T03:01:18;10.27;;;7.38;;
29214;SDS011;16252;49.816;7.964;2023-03-01T03:03:44;12.82;;;7.03;;
29214;SDS011;16252;49.816;7.964;2023-03-01T03:06:10;8.93;;;6.35;;
29214;SDS011;16252;49.816;7.964;2023-03-01T03:08:35;11.13;;;7.47;;
29214;SDS011;16252;49.816;7.964;2023-03-01T03:11:00;11.70;;;6.97;;
29214;SDS011;16252;49.816;7.964;2023-03-01T03:13:26;13.18;;;7.15;;
29214;SDS011;16252;49.816;7.964;2023-03-01T03:15:53;16.10;;;7.63;;
29214;SDS011;16252;49.816;7.964;2023-03-01T03:18:20;11.80;;;6.93;;
29214;SDS011;16252;49.816;7.964;2023-03-01T03:20:46;12.57;;;7.30;;
29214;SDS011;16252;49.816;7.964;2023-03-01T03:23:11;11.68;;;7.55;;
29214;SDS011;16252;49.816;7.964;2023-03-01T03:25:37;11.52;;;7.25;;
29214;SDS011;16252;49.816;7.964;2023-03-01T03:28:03;11.23;;;6.72;;
29214;SDS011;16252;49.816;7.964;2023-03-01T03:30:35;9.55;;;7.05;;
29214;SDS011;16252;49.816;7.964;2023-03-01T03:33:02;11.85;;;7.32;;
29214;SDS011;16252;49.816;7.964;2023-03-01T03:35:29;12.18;;;7.13;;
29214;SDS011;16252;49.816;7.964;2023-03-01T03:37:59;13.07;;;7.78;;
29214;SDS011;16252;49.816;7.964;2023-03-01T03:40:33;12.20;;;7.13;;
29214;SDS011;16252;49.816;7.964;2023-03-01T03:43:03;13.73;;;7.43;;
29214;SDS011;16252;49.816;7.964;2023-03-01T03:45:30;11.93;;;7.20;;
29214;SDS011;16252;49.816;7.964;2023-03-01T03:47:58;12.25;;;7.47;;
29214;SDS011;16252;49.816;7.964;2023-03-01T03:50:24;11.50;;;7.38;;
29214;SDS011;16252;49.816;7.964;2023-03-01T03:52:49;10.57;;;7.18;;
29214;SDS011;16252;49.816;7.964;2023-03-01T03:55:15;13.30;;;8.18;;
29214;SDS011;16252;49.816;7.964;2023-03-01T03:57:44;11.30;;;7.20;;
29214;SDS011;16252;49.816;7.964;2023-03-01T04:00:19;12.82;;;7.90;;
29214;SDS011;16252;49.816;7.964;2023-03-01T04:02:46;12.82;;;7.68;;
29214;SDS011;16252;49.816;7.964;2023-03-01T04:05:15;13.18;;;7.85;;
29214;SDS011;16252;49.816;7.964;2023-03-01T04:07:42;11.60;;;7.28;;
29214;SDS011;16252;49.816;7.964;2023-03-01T04:10:12;10.45;;;7.45;;
29214;SDS011;16252;49.816;7.964;2023-03-01T04:12:39;14.52;;;7.78;;
29214;SDS011;16252;49.816;7.964;2023-03-01T04:15:05;11.48;;;7.80;;
29214;SDS011;16252;49.816;7.964;2023-03-01T04:17:45;11.07;;;7.63;;
29214;SDS011;16252;49.816;7.964;2023-03-01T04:20:18;11.55;;;7.50;;
29214;SDS011;16252;49.816;7.964;2023-03-01T04:22:56;12.35;;;7.63;;
29214;SDS011;16252;49.816;7.964;2023-03-01T04:25:42;12.75;;;8.15;;
29214;SDS011;16252;49.816;7.964;2023-03-01T04:28:11;11.95;;;7.40;;
29214;SDS011;16252;49.816;7.964;2023-03-01T04:30:38;11.68;;;7.88;;
29214;SDS011;16252;49.816;7.964;2023-03-01T04:33:07;11.52;;;7.22;;
29214;SDS011;16252;49.816;7.964;2023-03-01T04:35:36;12.82;;;7.47;;
29214;SDS011;16252;49.816;7.964;2023-03-01T04:38:03;11.82;;;7.72;;
29214;SDS011;16252;49.816;7.964;2023-03-01T04:40:29;12.30;;;8.10;;
29214;SDS011;16252;49.816;7.964;2023-03-01T04:42:57;12.57;;;7.57;;
29214;SDS011;16252;49.816;7.964;2023-03-01T04:45:23;12.02;;;8.10;;
29214;SDS011;16252;49.816;7.964;2023-03-01T04:47:48;13.27;;;7.55;;
29214;SDS011;16252;49.816;7.964;2023-03-01T04:50:15;12.35;;;8.80;;
29214;SDS011;16252;49.816;7.964;2023-03-01T04:52:42;14.13;;;9.00;;
29214;SDS011;16252;49.816;7.964;2023-03-01T04:55:07;14.70;;;7.95;;
29214;SDS011;16252;49.816;7.964;2023-03-01T04:57:34;13.57;;;8.32;;
29214;SDS011;16252;49.816;7.964;2023-03-01T04:59:59;10.73;;;7.53;;
29214;SDS011;16252;49.816;7.964;2023-03-01T05:02:25;13.80;;;8.70;;
29214;SDS011;16252;49.816;7.964;2023-03-01T05:04:50;13.00;;;8.32;;
29214;SDS011;16252;49.816;7.964;2023-03-01T05:07:18;11.93;;;7.88;;
29214;SDS011;16252;49.816;7.964;2023-03-01T05:09:45;13.88;;;8.50;;
29214;SDS011;16252;49.816;7.964;2023-03-01T05:12:11;13.13;;;8.50;;
29214;SDS011;16252;49.816;7.964;2023-03-01T05:14:36;14.30;;;8.38;;
29214;SDS011;16252;49.816;7.964;2023-03-01T05:17:03;14.98;;;8.95;;
29214;SDS011;16252;49.816;7.964;2023-03-01T05:19:29;15.43;;;9.52;;
29214;SDS011;16252;49.816;7.964;2023-03-01T05:21:55;16.80;;;9.52;;
29214;SDS011;16252;49.816;7.964;2023-03-01T05:24:29;15.98;;;9.85;;
29214;SDS011;16252;49.816;7.964;2023-03-01T05:26:56;19.23;;;9.32;;
29214;SDS011;16252;49.816;7.964;2023-03-01T05:29:22;15.45;;;9.50;;
29214;SDS011;16252;49.816;7.964;2023-03-01T05:31:55;18.70;;;9.80;;
29214;SDS011;16252;49.816;7.964;2023-03-01T05:34:27;16.55;;;9.48;;
29214;SDS011;16252;49.816;7.964;2023-03-01T05:37:02;14.15;;;8.60;;
29214;SDS011;16252;49.816;7.964;2023-03-01T05:39:28;14.40;;;8.50;;
29214;SDS011;16252;49.816;7.964;2023-03-01T05:41:55;13.13;;;8.63;;
29214;SDS011;16252;49.816;7.964;2023-03-01T05:44:22;15.73;;;8.88;;
29214;SDS011;16252;49.816;7.964;2023-03-01T05:46:48;16.63;;;9.85;;
29214;SDS011;16252;49.816;7.964;2023-03-01T05:49:14;15.25;;;9.38;;
29214;SDS011;16252;49.816;7.964;2023-03-01T05:51:40;14.35;;;9.68;;
29214;SDS011;16252;49.816;7.964;2023-03-01T05:54:06;16.45;;;10.50;;
29214;SDS011;16252;49.816;7.964;2023-03-01T05:56:35;18.00;;;10.55;;
29214;SDS011;16252;49.816;7.964;2023-03-01T05:59:02;17.10;;;10.73;;
29214;SDS011;16252;49.816;7.964;2023-03-01T06:01:29;18.58;;;11.20;;
29214;SDS011;16252;49.816;7.964;2023-03-01T06:03:55;22.23;;;11.48;;
29214;SDS011;16252;49.816;7.964;2023-03-01T06:06:21;21.05;;;11.52;;
29214;SDS011;16252;49.816;7.964;2023-03-01T06:08:47;24.02;;;12.77;;
29214;SDS011;16252;49.816;7.964;2023-03-01T06:11:13;20.92;;;12.23;;
29214;SDS011;16252;49.816;7.964;2023-03-01T06:13:38;19.17;;;11.40;;
29214;SDS011;16252;49.816;7.964;2023-03-01T06:16:04;20.17;;;11.73;;
29214;SDS011;16252;49.816;7.964;2023-03-01T06:18:31;18.73;;;10.85;;
29214;SDS011;16252;49.816;7.964;2023-03-01T06:20:56;16.92;;;9.80;;
29214;SDS011;16252;49.816;7.964;2023-03-01T06:23:24;15.68;;;9.13;;
29214;SDS011;16252;49.816;7.964;2023-03-01T06:25:50;17.05;;;9.82;;
29214;SDS011;16252;49.816;7.964;2023-03-01T06:28:18;17.73;;;9.40;;
29214;SDS011;16252;49.816;7.964;2023-03-01T06:30:44;16.33;;;9.88;;
29214;SDS011;16252;49.816;7.964;2023-03-01T06:33:09;16.60;;;8.88;;
29214;SDS011;16252;49.816;7.964;2023-03-01T06:35:35;14.90;;;9.82;;
29214;SDS011;16252;49.816;7.964;2023-03-01T06:38:01;14.77;;;9.50;;
29214;SDS011;16252;49.816;7.964;2023-03-01T06:40:28;15.05;;;9.10;;
29214;SDS011;16252;49.816;7.964;2023-03-01T06:42:56;16.25;;;9.30;;
29214;SDS011;16252;49.816;7.964;2023-03-01T06:45:21;17.60;;;9.55;;
29214;SDS011;16252;49.816;7.964;2023-03-01T06:47:49;15.38;;;8.90;;
29214;SDS011;16252;49.816;7.964;2023-03-01T06:50:17;14.02;;;8.77;;
29214;SDS011;16252;49.816;7.964;2023-03-01T06:52:43;13.25;;;8.73;;
29214;SDS011;16252;49.816;7.964;2023-03-01T06:55:13;16.33;;;9.70;;
29214;SDS011;16252;49.816;7.964;2023-03-01T06:57:38;17.80;;;9.73;;
29214;SDS011;16252;49.816;7.964;2023-03-01T07:00:04;16.35;;;9.32;;
29214;SDS011;16252;49.816;7.964;2023-03-01T07:02:30;15.95;;;9.43;;
29214;SDS011;16252;49.816;7.964;2023-03-01T07:04:59;13.00;;;8.68;;
29214;SDS011;16252;49.816;7.964;2023-03-01T07:07:24;16.73;;;9.25;;
29214;SDS011;16252;49.816;7.964;2023-03-01T07:09:49;14.75;;;9.77;;
29214;SDS011;16252;49.816;7.964;2023-03-01T07:12:15;15.20;;;10.27;;
29214;SDS011;16252;49.816;7.964;2023-03-01T07:14:41;18.77;;;9.32;;
29214;SDS011;16252;49.816;7.964;2023-03-01T07:17:06;15.23;;;9.63;;
29214;SDS011;16252;49.816;7.964;2023-03-01T07:19:32;17.02;;;9.57;;
29214;SDS011;16252;49.816;7.964;2023-03-01T07:21:57;15.00;;;9.52;;
29214;SDS011;16252;49.816;7.964;2023-03-01T07:24:22;18.00;;;9.93;;
29214;SDS011;16252;49.816;7.964;2023-03-01T07:26:51;16.33;;;9.93;;
29214;SDS011;16252;49.816;7.964;2023-03-01T07:29:19;18.23;;;9.50;;
29214;SDS011;16252;49.816;7.964;2023-03-01T07:31:45;15.70;;;9.57;;
29214;SDS011;16252;49.816;7.964;2023-03-01T07:34:10;15.88;;;10.27;;
29214;SDS011;16252;49.816;7.964;2023-03-01T07:36:43;17.05;;;10.52;;
29214;SDS011;16252;49.816;7.964;2023-03-01T07:39:10;19.27;;;11.07;;
29214;SDS011;16252;49.816;7.964;2023-03-01T07:41:36;17.42;;;11.38;;
29214;SDS011;16252;49.816;7.964;2023-03-01T07:44:01;17.13;;;10.68;;
29214;SDS011;16252;49.816;7.964;2023-03-01T07:46:30;17.45;;;11.40;;
29214;SDS011;16252;49.816;7.964;2023-03-01T07:48:55;20.20;;;12.00;;
29214;SDS011;16252;49.816;7.964;2023-03-01T07:51:20;17.23;;;11.55;;
29214;SDS011;16252;49.816;7.964;2023-03-01T07:53:46;18.13;;;10.65;;
29214;SDS011;16252;49.816;7.964;2023-03-01T07:56:13;18.60;;;10.95;;
29214;SDS011;16252;49.816;7.964;2023-03-01T07:58:41;17.92;;;11.30;;
29214;SDS011;16252;49.816;7.964;2023-03-01T08:01:08;17.67;;;11.50;;
29214;SDS011;16252;49.816;7.964;2023-03-01T08:03:38;17.60;;;10.95;;
29214;SDS011;16252;49.816;7.964;2023-03-01T08:06:05;15.18;;;11.70;;
29214;SDS011;16252;49.816;7.964;2023-03-01T08:08:32;22.08;;;11.50;;
29214;SDS011;16252;49.816;7.964;2023-03-01T08:10:58;18.02;;;10.40;;
29214;SDS011;16252;49.816;7.964;2023-03-01T08:13:25;15.82;;;9.75;;
29214;SDS011;16252;49.816;7.964;2023-03-01T08:15:52;17.00;;;10.93;;
29214;SDS011;16252;49.816;7.964;2023-03-01T08:18:18;15.85;;;9.68;;
29214;SDS011;16252;49.816;7.964;2023-03-01T08:20:44;20.33;;;10.63;;
29214;SDS011;16252;49.816;7.964;2023-03-01T08:23:10;20.88;;;10.80;;
29214;SDS011;16252;49.816;7.964;2023-03-01T08:25:35;18.48;;;11.23;;
29214;SDS011;16252;49.816;7.964;2023-03-01T08:28:01;17.02;;;10.68;;
29214;SDS011;16252;49.816;7.964;2023-03-01T08:30:26;22.88;;;10.27;;
29214;SDS011;16252;49.816;7.964;2023-03-01T08:32:52;16.20;;;10.77;;
29214;SDS011;16252;49.816;7.964;2023-03-01T08:35:17;15.30;;;10.15;;
29214;SDS011;16252;49.816;7.964;2023-03-01T08:37:44;17.17;;;10.23;;
29214;SDS011;16252;49.816;7.964;2023-03-01T08:40:09;18.80;;;10.45;;
29214;SDS011;16252;49.816;7.964;2023-03-01T08:42:35;16.95;;;10.45;;
29214;SDS011;16252;49.816;7.964;2023-03-01T08:45:02;20.35;;;11.55;;
29214;SDS011;16252;49.816;7.964;2023-03-01T08:47:28;17.42;;;9.68;;
29214;SDS011;16252;49.816;7.964;2023-03-01T08:49:53;19.08;;;11.57;;
29214;SDS011;16252;49.816;7.964;2023-03-01T08:52:19;15.40;;;9.93;;
29214;SDS011;16252;49.816;7.964;2023-03-01T08:54:46;17.38;;;10.88;;
29214;SDS011;16252;49.816;7.964;2023-03-01T08:57:12;20.10;;;11.45;;
29214;SDS011;16252;49.816;7.964;2023-03-01T08:59:38;17.55;;;11.25;;
29214;SDS011;16252;49.816;7.964;2023-03-01T09:02:04;20.02;;;10.93;;
29214;SDS011;16252;49.816;7.964;2023-03-01T09:04:31;21.83;;;11.20;;
29214;SDS011;16252;49.816;7.964;2023-03-01T09:06:58;16.38;;;11.07;;
29214;SDS011;16252;49.816;7.964;2023-03-01T09:09:24;17.63;;;11.30;;
29214;SDS011;16252;49.816;7.964;2023-03-01T09:11:49;16.48;;;10.90;;
29214;SDS011;16252;49.816;7.964;2023-03-01T09:14:15;16.52;;;10.40;;
29214;SDS011;16252;49.816;7.964;2023-03-01T09:16:41;16.98;;;10.95;;
29214;SDS011;16252;49.816;7.964;2023-03-01T09:19:07;15.98;;;10.13;;
29214;SDS011;16252;49.816;7.964;2023-03-01T09:21:32;15.38;;;10.85;;
29214;SDS011;16252;49.816;7.964;2023-03-01T09:23:58;17.85;;;10.48;;
29214;SDS011;16252;49.816;7.964;2023-03-01T09:26:23;19.75;;;11.07;;
29214;SDS011;16252;49.816;7.964;2023-03-01T09:28:50;18.88;;;10.82;;
29214;SDS011;16252;49.816;7.964;2023-03-01T09:31:18;18.23;;;11.60;;
29214;SDS011;16252;49.816;7.964;2023-03-01T09:33:45;18.00;;;11.18;;
29214;SDS011;16252;49.816;7.964;2023-03-01T09:36:13;19.92;;;11.18;;
29214;SDS011;16252;49.816;7.964;2023-03-01T09:38:40;17.17;;;11.65;;
29214;SDS011;16252;49.816;7.964;2023-03-01T09:41:09;18.42;;;11.63;;
29214;SDS011;16252;49.816;7.964;2023-03-01T09:43:57;19.38;;;11.60;;
29214;SDS011;16252;49.816;7.964;2023-03-01T09:46:29;18.17;;;11.60;;
29214;SDS011;16252;49.816;7.964;2023-03-01T09:49:01;19.50;;;11.93;;
29214;SDS011;16252;49.816;7.964;2023-03-01T09:51:33;19.55;;;11.20;;
29214;SDS011;16252;49.816;7.964;2023-03-01T09:54:04;17.67;;;11.63;;
29214;SDS011;16252;49.816;7.964;2023-03-01T09:56:37;18.92;;;11.93;;
29214;SDS011;16252;49.816;7.964;2023-03-01T10:01:45;17.67;;;11.95;;
29214;SDS011;16252;49.816;7.964;2023-03-01T10:09:36;19.23;;;12.63;;
29214;SDS011;16252;49.816;7.964;2023-03-01T10:12:04;20.00;;;11.75;;
29214;SDS011;16252;49.816;7.964;2023-03-01T10:14:36;19.42;;;12.63;;
29214;SDS011;16252;49.816;7.964;2023-03-01T10:17:12;18.70;;;12.80;;
29214;SDS011;16252;49.816;7.964;2023-03-01T10:19:55;16.55;;;11.63;;
29214;SDS011;16252;49.816;7.964;2023-03-01T10:24:54;15.38;;;10.52;;
29214;SDS011;16252;49.816;7.964;2023-03-01T10:27:23;18.80;;;12.27;;
29214;SDS011;16252;49.816;7.964;2023-03-01T10:29:54;18.10;;;12.15;;
29214;SDS011;16252;49.816;7.964;2023-03-01T10:32:29;20.70;;;11.98;;
29214;SDS011;16252;49.816;7.964;2023-03-01T10:34:55;17.38;;;11.63;;
29214;SDS011;16252;49.816;7.964;2023-03-01T10:37:22;16.33;;;11.75;;
29214;SDS011;16252;49.816;7.964;2023-03-01T10:39:56;18.15;;;11.35;;
29214;SDS011;16252;49.816;7.964;2023-03-01T10:42:36;14.43;;;10.43;;
29214;SDS011;16252;49.816;7.964;2023-03-01T10:45:46;15.27;;;10.68;;
29214;SDS011;16252;49.816;7.964;2023-03-01T10:48:08;15.00;;;10.55;;
29214;SDS011;16252;49.816;7.964;2023-03-01T10:50:41;16.38;;;11.15;;
29214;SDS011;16252;49.816;7.964;2023-03-01T10:53:31;14.75;;;11.57;;
29214;SDS011;16252;49.816;7.964;2023-03-01T10:56:01;14.45;;;10.55;;
29214;SDS011;16252;49.816;7.964;2023-03-01T10:58:29;15.13;;;11.63;;
29214;SDS011;16252;49.816;7.964;2023-03-01T11:00:59;13.43;;;10.07;;
29214;SDS011;16252;49.816;7.964;2023-03-01T11:03:29;14.93;;;10.30;;
29214;SDS011;16252;49.816;7.964;2023-03-01T11:06:00;13.43;;;10.23;;
29214;SDS011;16252;49.816;7.964;2023-03-01T11:08:30;15.60;;;10.27;;
29214;SDS011;16252;49.816;7.964;2023-03-01T11:11:05;13.30;;;10.45;;
29214;SDS011;16252;49.816;7.964;2023-03-01T11:13:30;14.82;;;11.15;;
29214;SDS011;16252;49.816;7.964;2023-03-01T11:15:59;14.25;;;10.55;;
29214;SDS011;16252;49.816;7.964;2023-03-01T11:18:27;13.93;;;10.60;;
29214;SDS011;16252;49.816;7.964;2023-03-01T11:20:55;14.30;;;10.93;;
29214;SDS011;16252;49.816;7.964;2023-03-01T11:23:23;15.95;;;11.07;;
29214;SDS011;16252;49.816;7.964;2023-03-01T11:25:51;14.35;;;10.98;;
29214;SDS011;16252;49.816;7.964;2023-03-01T11:28:22;16.60;;;10.93;;
29214;SDS011;16252;49.816;7.964;2023-03-01T11:38:45;15.68;;;11.32;;
29214;SDS011;16252;49.816;7.964;2023-03-01T12:03:07;19.52;;;12.57;;
29214;SDS011;16252;49.816;7.964;2023-03-01T12:06:04;18.52;;;11.52;;
29214;SDS011;16252;49.816;7.964;2023-03-01T12:09:02;17.67;;;11.23;;
29214;SDS011;16252;49.816;7.964;2023-03-01T12:11:50;19.35;;;12.23;;
29214;SDS011;16252;49.816;7.964;2023-03-01T12:25:03;19.40;;;12.27;;
29214;SDS011;16252;49.816;7.964;2023-03-01T12:36:15;17.92;;;11.38;;
29214;SDS011;16252;49.816;7.964;2023-03-01T12:38:50;20.35;;;12.40;;
29214;SDS011;16252;49.816;7.964;2023-03-01T12:41:36;20.05;;;12.18;;
29214;SDS011;16252;49.816;7.964;2023-03-01T12:44:30;17.17;;;11.10;;
29214;SDS011;16252;49.816;7.964;2023-03-01T12:49:48;16.27;;;11.35;;
29214;SDS011;16252;49.816;7.964;2023-03-01T12:54:54;17.23;;;12.65;;
29214;SDS011;16252;49.816;7.964;2023-03-01T12:57:25;17.17;;;12.10;;
29214;SDS011;16252;49.816;7.964;2023-03-01T13:00:03;18.98;;;11.43;;
29214;SDS011;16252;49.816;7.964;2023-03-01T13:02:45;20.23;;;12.20;;
29214;SDS011;16252;49.816;7.964;2023-03-01T13:08:12;23.40;;;12.32;;
29214;SDS011;16252;49.816;7.964;2023-03-01T13:10:52;18.77;;;11.50;;
29214;SDS011;16252;49.816;7.964;2023-03-01T13:13:25;16.92;;;11.07;;
29214;SDS011;16252;49.816;7.964;2023-03-01T13:15:51;14.88;;;10.07;;
29214;SDS011;16252;49.816;7.964;2023-03-01T13:20:49;15.50;;;9.77;;
29214;SDS011;16252;49.816;7.964;2023-03-01T13:30:59;15.48;;;9.43;;
29214;SDS011;16252;49.816;7.964;2023-03-01T13:35:50;14.05;;;9.05;;
29214;SDS011;16252;49.816;7.964;2023-03-01T13:41:02;16.30;;;9.48;;
29214;SDS011;16252;49.816;7.964;2023-03-01T13:43:29;18.13;;;10.63;;
29214;SDS011;16252;49.816;7.964;2023-03-01T13:45:57;14.35;;;8.77;;
29214;SDS011;16252;49.816;7.964;2023-03-01T13:48:25;19.20;;;9.18;;
29214;SDS011;16252;49.816;7.964;2023-03-01T13:51:03;15.30;;;9.82;;
29214;SDS011;16252;49.816;7.964;2023-03-01T13:53:45;15.35;;;9.75;;
29214;SDS011;16252;49.816;7.964;2023-03-01T13:58:53;14.65;;;8.82;;
29214;SDS011;16252;49.816;7.964;2023-03-01T14:03:53;15.60;;;9.13;;
29214;SDS011;16252;49.816;7.964;2023-03-01T14:06:21;12.65;;;8.35;;
29214;SDS011;16252;49.816;7.964;2023-03-01T14:08:49;12.95;;;8.95;;
29214;SDS011;16252;49.816;7.964;2023-03-01T14:19:47;16.77;;;8.13;;
29214;SDS011;16252;49.816;7.964;2023-03-01T14:22:19;13.10;;;8.00;;
29214;SDS011;16252;49.816;7.964;2023-03-01T14:24:48;15.10;;;8.75;;
29214;SDS011;16252;49.816;7.964;2023-03-01T14:27:15;11.18;;;7.60;;
29214;SDS011;16252;49.816;7.964;2023-03-01T14:29:42;12.80;;;8.23;;
29214;SDS011;16252;49.816;7.964;2023-03-01T14:32:21;10.80;;;7.78;;
29214;SDS011;16252;49.816;7.964;2023-03-01T14:34:49;12.02;;;7.97;;
29214;SDS011;16252;49.816;7.964;2023-03-01T14:39:44;10.60;;;7.18;;
29214;SDS011;16252;49.816;7.964;2023-03-01T14:42:09;10.35;;;8.00;;
29214;SDS011;16252;49.816;7.964;2023-03-01T14:44:34;12.15;;;7.75;;
29214;SDS011;16252;49.816;7.964;2023-03-01T14:47:02;11.45;;;8.20;;
29214;SDS011;16252;49.816;7.964;2023-03-01T14:49:29;14.60;;;8.85;;
29214;SDS011;16252;49.816;7.964;2023-03-01T14:52:03;12.68;;;7.65;;
29214;SDS011;16252;49.816;7.964;2023-03-01T14:54:39;12.40;;;7.35;;
29214;SDS011;16252;49.816;7.964;2023-03-01T14:57:19;14.40;;;6.70;;
29214;SDS011;16252;49.816;7.964;2023-03-01T14:59:49;11.82;;;7.95;;
29214;SDS011;16252;49.816;7.964;2023-03-01T15:02:19;11.95;;;7.70;;
29214;SDS011;16252;49.816;7.964;2023-03-01T15:04:48;10.73;;;7.45;;
29214;SDS011;16252;49.816;7.964;2023-03-01T15:07:16;10.57;;;7.20;;
29214;SDS011;16252;49.816;7.964;2023-03-01T15:09:42;11.30;;;6.45;;
29214;SDS011;16252;49.816;7.964;2023-03-01T15:15:22;10.63;;;6.57;;
29214;SDS011;16252;49.816;7.964;2023-03-01T15:17:56;11.98;;;6.85;;
29214;SDS011;16252;49.816;7.964;2023-03-01T15:20:25;13.60;;;6.95;;
29214;SDS011;16252;49.816;7.964;2023-03-01T15:22:54;10.85;;;6.65;;
29214;SDS011;16252;49.816;7.964;2023-03-01T15:25:24;12.18;;;6.57;;
29214;SDS011;16252;49.816;7.964;2023-03-01T15:27:52;8.43;;;5.95;;
29214;SDS011;16252;49.816;7.964;2023-03-01T15:30:26;9.73;;;6.63;;
29214;SDS011;16252;49.816;7.964;2023-03-01T15:33:47;11.80;;;7.13;;
29214;SDS011;16252;49.816;7.964;2023-03-01T15:35:48;9.80;;;5.97;;
29214;SDS011;16252;49.816;7.964;2023-03-01T15:38:50;12.65;;;6.93;;
29214;SDS011;16252;49.816;7.964;2023-03-01T15:41:58;9.57;;;5.95;;
29214;SDS011;16252;49.816;7.964;2023-03-01T15:44:25;9.30;;;6.50;;
29214;SDS011;16252;49.816;7.964;2023-03-01T15:46:55;10.38;;;6.53;;
29214;SDS011;16252;49.816;7.964;2023-03-01T15:52:40;11.55;;;6.45;;
29214;SDS011;16252;49.816;7.964;2023-03-01T15:55:26;12.02;;;7.13;;
29214;SDS011;16252;49.816;7.964;2023-03-01T16:00:28;9.73;;;5.93;;
29214;SDS011;16252;49.816;7.964;2023-03-01T16:02:54;9.55;;;6.00;;
29214;SDS011;16252;49.816;7.964;2023-03-01T16:07:50;11.50;;;6.70;;
29214;SDS011;16252;49.816;7.964;2023-03-01T16:10:16;10.35;;;6.55;;
29214;SDS011;16252;49.816;7.964;2023-03-01T16:12:42;9.35;;;5.88;;
29214;SDS011;16252;49.816;7.964;2023-03-01T16:15:15;8.90;;;5.85;;
29214;SDS011;16252;49.816;7.964;2023-03-01T16:17:51;9.27;;;6.50;;
29214;SDS011;16252;49.816;7.964;2023-03-01T16:20:17;10.32;;;6.57;;
29214;SDS011;16252;49.816;7.964;2023-03-01T16:22:43;10.60;;;6.80;;
29214;SDS011;16252;49.816;7.964;2023-03-01T16:25:09;10.80;;;7.32;;
29214;SDS011;16252;49.816;7.964;2023-03-01T16:27:37;12.73;;;7.07;;
29214;SDS011;16252;49.816;7.964;2023-03-01T16:30:02;10.30;;;6.85;;
29214;SDS011;16252;49.816;7.964;2023-03-01T16:32:29;11.30;;;6.80;;
29214;SDS011;16252;49.816;7.964;2023-03-01T16:34:54;12.13;;;7.03;;
29214;SDS011;16252;49.816;7.964;2023-03-01T16:37:19;12.18;;;7.45;;